GOOK

Kaolack Airport

Kaolack, Senegal
METAR GOOK 231000Z 00000KT CAVOK 29/23 Q1014
Observed Flight Rules
Oct-23 @ 10:00 UTC (25 minutes ago) Visual Flight Rules
Visibility Clouds
10,000+ meters
  • Clear skies
Temperatures Readings
Current 29°C / 84°F
Dewpoint 23°C / 73°F
Humidity 70%
Altimeter 29.94" Hg
Pressure 1014 hPa
Elevation 7
METAR GOOK 231000Z 00000KT CAVOK 29/23 Q1014
Observed Flight Rules
Oct-23 @ 10:00 UTC
(25 minutes ago)
VFR
Clouds
  • Clear skies
Temperature Dewpoint
29°C / 84°F 23°C / 73°F
Humidity Altimeter Pressure
70% 29.94" Hg 1014 hPa